Airfield :







YOU CAN JOIN US ON...

 
LOGIN :

Register | Disclaimer

   EN    FR    IT 

 









Legend :    VFR   Marginal VFR   IFR   Intensive IFR   Very Intensive IFR
Visi :
Ceiling :
>= 8 km
>= 3000ft
5 to 8 km
1000 to 3000 ft
1500m to 5 km
500 to 1000 ft
800 to 1500m
200 to 500 ft
< 800m
< 200 ft
Symbols :   Thunderstorms  Fog  Heavy snow  Heavy precipitations  Wind > 20 kt






- Airport Elevation : 792 ft
- IATA code : YSC


CYSC - Sherbrooke

CURRENT METAR :
  • 142000Z AUTO 05010KT 350V080 9SM SCT042 BKN100 25/15 A3001 RMK LTNG DIST S SLP164 DENSITY ALT 1900FT

EXPIRED METARs :
  • 141900Z AUTO 04007G15KT 350V070 9SM FEW250 25/17 A2999 RMK LTNG DIST SE S SW SLP157 DENSITY ALT 2000FT
  • 141800Z AUTO 02008G15KT 9SM FEW037 SCT055 SCT240 24/16 A2998 RMK SLP154 DENSITY ALT 1900FT

TAF TAF CYSC
Valid from the 14 at 18:00 until the 15 at 03:00 UTC


141738Z 1418/1503 03008KT P6SM SCT015 BKN100
TEMPO 1418/1502 5SM -SHRA BR BKN015 OVC100
PROB30 1421/1423 VRB15G25KT 3SM TSRA BR BKN008 OVC015CB
FM150200 09006KT P6SM BKN040 RMK FCST BASED ON AUTO OBS. NXT FCST BY 150000Z
CZUL FIR / North America



MET'MAP, your aeronautical weather chart ! - Copyright ORBIFLY December 2007 - Disclaimer

ORBIFLY MET'MAP TEAM :

Programming & Development : Alexandra Zaïnal
Concept & original design : Baudouin d'Aumeries
Assistance for programming : Marc-Olivier Méhu
Technical & hardware support : Manuel Goepfert

Contact : metmap@orbifly.com




SOURCES & CREDITS :

   NOAA